Sylvain Desmarres

Sylvain Desmarres

Statistiques 2026

  • Courses courues : 14
  • Nb de victoires : -
  • Nb de places : 4
  • Écart gagnant : 66
  • Réussite à la gagne : -
  • Réussite à la place : 29%
Musique : 2a 8a 7a 2a 4a 3a Da 6a 3a 4a 0a 9a 7a 6a (25) Da 4a Da 4a
DateRangCatégorieAlloc.Dist.HippodromeChevalRed. KmSpé.
19/07/11 4 Trot 22 000€ 2 725m Pornichet La Baule Session Prior 1'17"9 Attelé
17/07/11 4 Mixte 11 000€ 3 025m Senonnes Thetis Jac Attelé
14/07/11 9 Trot 10 000€ 2 625m Savenay Salto Prior Attelé
12/07/11 8 Trot 13 000€ 2 725m Pornichet La Baule Session Prior 1'18"7 Attelé
10/07/11 7 Mixte 17 000€ 2 425m Nort Sur Erdre Racer Prior Attelé
19/06/11 6 Mixte 11 000€ 2 975m Jallais Sissi Mauve Attelé
16/06/11 7 Trot 21 000€ 2 725m Graignes Session Prior 1'18"2 Attelé
13/06/11 D Mixte 12 000€ 2 825m Durtal Tahilla de Viette Attelé
12/06/11 D Trot 13 000€ 2 625m La Roche Sur Yon Rocky de Jervi Attelé
12/06/11 4 Trot 11 000€ 2 600m La Roche Sur Yon Sissi Mauve 1'21"6 Attelé
06/06/11 7 Trot 11 000€ 2 750m Graignes Salto Prior 1'18"9 Attelé
05/06/11 5 Mixte 11 000€ 2 725m Orleans Tahilla de Viette Attelé
05/06/11 6 Mixte 11 000€ 2 725m Orleans Style Prior Attelé
29/05/11 D Mixte 10 000€ 3 025m Senonnes Style Prior Attelé
29/05/11 0 Mixte 9 000€ 3 000m Senonnes Thais Mauve Attelé
22/05/11 3 Mixte 8 000€ 2 325m Chateau Gontier Upper Prior Attelé
22/05/11 8 Mixte 11 000€ 2 825m Chateau Gontier Tahilla de Viette Attelé
15/05/11 D Trot 12 000€ 2 625m La Roche Sur Yon Salto Prior Attelé
15/05/11 4 Trot 12 000€ 2 625m La Roche Sur Yon Session Prior 1'22"0 Attelé
08/05/11 D Mixte 10 000€ 2 700m Angouleme Tahilla de Viette Attelé
08/05/11 5 Mixte 10 000€ 2 225m Angouleme Upsaline de Mai 1'22"4 Attelé
01/05/11 D Trot 11 000€ 2 850m Cholet Tahilla de Viette Attelé
25/04/11 8 Trot 16 000€ 2 900m Argentan Racer Prior Attelé
25/04/11 8 Trot 16 000€ 2 900m Ranes Racer Prior 1'20"7 Attelé
25/04/11 D Trot 11 000€ 2 875m Argentan Thais Mauve Attelé
25/04/11 D Trot 11 000€ 2 875m Ranes Thais Mauve Attelé
24/04/11 D Mixte 12 000€ 2 875m Loudeac Salto Prior Attelé
17/04/11 7 Mixte 10 000€ 3 000m Jallais Thetis Jac Attelé
10/04/11 3 Mixte 10 000€ 3 275m Saumur Thetis Jac Attelé
10/04/11 1 Mixte 13 000€ 3 275m Saumur Session Prior TNC Attelé
03/04/11 2 Trot 10 000€ 3 025m Neuille Pont Pierre Tahilla de Viette Attelé
27/03/11 4 Mixte 11 000€ 3 275m Saumur Salto Prior Attelé
27/03/11 6 Mixte 10 000€ 3 275m Saumur Tahilla de Viette Attelé
13/03/11 3 Trot 16 000€ 2 675m Machecoul Salto Prior 1'20"6 Attelé
06/03/11 5 Mixte 11 000€ 2 850m Cholet Salto Prior 1'19"1 Attelé
28/02/11 1 Mixte 17 000€ 2 825m Pontchateau Racer Prior 1'17"1 Attelé
27/02/11 7 Trot 12 000€ 2 875m Laval Thetis Jac 1'18"8 Attelé
27/02/11 7 Trot 14 000€ 2 900m Laval Salto Prior 1'17"9 Attelé
15/02/11 3 Trot 41 000€ 2 700m Vincennes Racer Prior 1'15"4 Attelé lire

Vite en bonne position mais longtemps enfermé, a su terminer de superbe manière quand il a eu son jour en final.

13/02/11 5 Trot 13 000€ 2 425m Angers Thais Mauve 1'20"3 Attelé
15/01/11 1 Trot 33 000€ 2 100m Vincennes Racer Prior 1'12''9 Attelé lire

Est parvenu à prendre la tête au bas de la descente puis a ensuite contrôlé les débats et s'est imposé avec la manière.

20/12/10 4 Trot 20 000€ 2 950m Le Mans Style Prior 1'22"4 Attelé
12/12/10 5 Trot 13 000€ 3 025m Nantes Salto Prior 1'19"9 Attelé
05/12/10 4 Trot 20 000€ 2 875m Laval Racer Prior 1'17"0 Attelé lire

Après avoir figuré au sein du peloton, a conclu fort honorablement.

04/12/10 7 Mixte 10 000€ 2 875m Maure De Bretagne Thais Mauve 1'20"3 Attelé
04/12/10 1 Mixte 10 000€ 2 850m Maure De Bretagne Riga de Bassiere 1'18"8 Attelé
03/12/10 4 Trot 20 000€ 2 800m Chartres Style Prior 1'19"3 Attelé
29/11/10 4 Trot 16 000€ 2 875m Laval Session Prior 1'17"7 Attelé
28/11/10 6 Mixte 13 000€ 2 850m Maure De Bretagne Salto Prior 1'18"9 Attelé
21/11/10 4 Trot 12 000€ 2 725m Graignes Riga de Bassiere 1'20"2 Attelé